sensor_id;sensor_type;location;lat;lon;timestamp;P1;durP1;ratioP1;P2;durP2;ratioP2
24337;SDS011;12457;50.832;4.346;2024-02-26T00:00:39;4.03;;;1.80;;
24337;SDS011;12457;50.832;4.346;2024-02-26T00:03:04;2.97;;;1.65;;
24337;SDS011;12457;50.832;4.346;2024-02-26T00:05:30;4.97;;;1.90;;
24337;SDS011;12457;50.832;4.346;2024-02-26T00:07:56;4.85;;;1.95;;
24337;SDS011;12457;50.832;4.346;2024-02-26T00:10:23;2.40;;;1.77;;
24337;SDS011;12457;50.832;4.346;2024-02-26T00:12:49;4.85;;;2.28;;
24337;SDS011;12457;50.832;4.346;2024-02-26T00:15:14;4.15;;;2.17;;
24337;SDS011;12457;50.832;4.346;2024-02-26T00:17:40;4.75;;;2.13;;
24337;SDS011;12457;50.832;4.346;2024-02-26T00:20:06;3.72;;;2.28;;
24337;SDS011;12457;50.832;4.346;2024-02-26T00:22:35;5.00;;;1.80;;
24337;SDS011;12457;50.832;4.346;2024-02-26T00:25:01;4.22;;;2.70;;
24337;SDS011;12457;50.832;4.346;2024-02-26T00:27:26;5.25;;;2.10;;
24337;SDS011;12457;50.832;4.346;2024-02-26T00:29:52;4.30;;;2.20;;
24337;SDS011;12457;50.832;4.346;2024-02-26T00:35:17;4.15;;;2.17;;
24337;SDS011;12457;50.832;4.346;2024-02-26T00:37:45;4.80;;;1.90;;
24337;SDS011;12457;50.832;4.346;2024-02-26T00:40:11;3.03;;;2.05;;
24337;SDS011;12457;50.832;4.346;2024-02-26T00:42:38;5.35;;;1.98;;
24337;SDS011;12457;50.832;4.346;2024-02-26T00:45:04;2.58;;;1.60;;
24337;SDS011;12457;50.832;4.346;2024-02-26T00:47:30;5.13;;;2.00;;
24337;SDS011;12457;50.832;4.346;2024-02-26T00:49:55;3.45;;;1.75;;
24337;SDS011;12457;50.832;4.346;2024-02-26T00:52:21;4.38;;;2.47;;
24337;SDS011;12457;50.832;4.346;2024-02-26T00:54:47;2.75;;;2.00;;
24337;SDS011;12457;50.832;4.346;2024-02-26T00:57:12;4.95;;;2.20;;
24337;SDS011;12457;50.832;4.346;2024-02-26T00:59:38;3.33;;;1.80;;
24337;SDS011;12457;50.832;4.346;2024-02-26T01:02:04;3.30;;;2.00;;
24337;SDS011;12457;50.832;4.346;2024-02-26T01:04:31;5.43;;;2.00;;
24337;SDS011;12457;50.832;4.346;2024-02-26T01:06:59;3.88;;;1.73;;
24337;SDS011;12457;50.832;4.346;2024-02-26T01:09:24;5.40;;;2.03;;
24337;SDS011;12457;50.832;4.346;2024-02-26T01:11:50;5.47;;;1.92;;
24337;SDS011;12457;50.832;4.346;2024-02-26T01:14:16;2.40;;;2.20;;
24337;SDS011;12457;50.832;4.346;2024-02-26T01:16:41;5.45;;;2.00;;
24337;SDS011;12457;50.832;4.346;2024-02-26T01:19:07;2.20;;;1.98;;
24337;SDS011;12457;50.832;4.346;2024-02-26T01:21:33;4.57;;;2.03;;
24337;SDS011;12457;50.832;4.346;2024-02-26T01:23:58;4.65;;;2.03;;
24337;SDS011;12457;50.832;4.346;2024-02-26T01:26:24;2.88;;;2.03;;
24337;SDS011;12457;50.832;4.346;2024-02-26T01:28:50;5.47;;;2.10;;
24337;SDS011;12457;50.832;4.346;2024-02-26T01:31:15;4.13;;;1.98;;
24337;SDS011;12457;50.832;4.346;2024-02-26T01:33:41;4.47;;;2.20;;
24337;SDS011;12457;50.832;4.346;2024-02-26T01:36:07;2.28;;;1.85;;
24337;SDS011;12457;50.832;4.346;2024-02-26T01:38:33;2.92;;;1.90;;
24337;SDS011;12457;50.832;4.346;2024-02-26T01:40:58;6.00;;;2.17;;
24337;SDS011;12457;50.832;4.346;2024-02-26T01:43:24;2.83;;;2.08;;
24337;SDS011;12457;50.832;4.346;2024-02-26T01:45:50;3.85;;;2.03;;
24337;SDS011;12457;50.832;4.346;2024-02-26T01:48:15;4.57;;;2.13;;
24337;SDS011;12457;50.832;4.346;2024-02-26T01:50:41;3.78;;;2.05;;
24337;SDS011;12457;50.832;4.346;2024-02-26T01:53:07;5.82;;;1.77;;
24337;SDS011;12457;50.832;4.346;2024-02-26T01:55:34;4.60;;;1.70;;
24337;SDS011;12457;50.832;4.346;2024-02-26T01:58:00;4.25;;;1.95;;
24337;SDS011;12457;50.832;4.346;2024-02-26T02:00:26;5.50;;;1.80;;
24337;SDS011;12457;50.832;4.346;2024-02-26T02:02:53;2.90;;;1.67;;
24337;SDS011;12457;50.832;4.346;2024-02-26T02:05:20;2.50;;;1.55;;
24337;SDS011;12457;50.832;4.346;2024-02-26T02:07:46;2.20;;;1.88;;
24337;SDS011;12457;50.832;4.346;2024-02-26T02:10:13;1.80;;;1.48;;
24337;SDS011;12457;50.832;4.346;2024-02-26T02:12:40;3.13;;;1.63;;
24337;SDS011;12457;50.832;4.346;2024-02-26T02:15:06;2.47;;;1.63;;
24337;SDS011;12457;50.832;4.346;2024-02-26T02:17:33;6.85;;;1.58;;
24337;SDS011;12457;50.832;4.346;2024-02-26T02:19:59;3.35;;;1.67;;
24337;SDS011;12457;50.832;4.346;2024-02-26T02:22:24;2.20;;;1.70;;
24337;SDS011;12457;50.832;4.346;2024-02-26T02:24:52;2.25;;;1.70;;
24337;SDS011;12457;50.832;4.346;2024-02-26T02:27:18;2.72;;;1.70;;
24337;SDS011;12457;50.832;4.346;2024-02-26T02:29:44;3.13;;;1.70;;
24337;SDS011;12457;50.832;4.346;2024-02-26T02:32:11;1.67;;;1.35;;
24337;SDS011;12457;50.832;4.346;2024-02-26T02:34:36;4.55;;;1.55;;
24337;SDS011;12457;50.832;4.346;2024-02-26T02:37:02;2.90;;;1.90;;
24337;SDS011;12457;50.832;4.346;2024-02-26T02:39:28;5.40;;;1.77;;
24337;SDS011;12457;50.832;4.346;2024-02-26T02:41:53;2.88;;;1.48;;
24337;SDS011;12457;50.832;4.346;2024-02-26T02:44:19;3.28;;;1.55;;
24337;SDS011;12457;50.832;4.346;2024-02-26T02:50:07;1.85;;;1.60;;
24337;SDS011;12457;50.832;4.346;2024-02-26T02:52:33;5.18;;;1.90;;
24337;SDS011;12457;50.832;4.346;2024-02-26T02:54:59;4.55;;;1.73;;
24337;SDS011;12457;50.832;4.346;2024-02-26T02:57:26;1.73;;;1.60;;
24337;SDS011;12457;50.832;4.346;2024-02-26T02:59:51;1.98;;;1.60;;
24337;SDS011;12457;50.832;4.346;2024-02-26T03:02:17;3.72;;;1.75;;
24337;SDS011;12457;50.832;4.346;2024-02-26T03:04:43;3.85;;;1.60;;
24337;SDS011;12457;50.832;4.346;2024-02-26T03:07:08;2.33;;;1.52;;
24337;SDS011;12457;50.832;4.346;2024-02-26T03:09:34;2.25;;;1.80;;
24337;SDS011;12457;50.832;4.346;2024-02-26T03:12:00;4.47;;;1.90;;
24337;SDS011;12457;50.832;4.346;2024-02-26T03:14:25;2.75;;;1.77;;
24337;SDS011;12457;50.832;4.346;2024-02-26T03:16:54;2.35;;;1.70;;
24337;SDS011;12457;50.832;4.346;2024-02-26T03:19:20;2.88;;;1.80;;
24337;SDS011;12457;50.832;4.346;2024-02-26T03:21:46;4.72;;;1.75;;
24337;SDS011;12457;50.832;4.346;2024-02-26T03:24:11;2.22;;;1.80;;
24337;SDS011;12457;50.832;4.346;2024-02-26T03:26:37;2.15;;;1.90;;
24337;SDS011;12457;50.832;4.346;2024-02-26T03:29:03;2.85;;;2.33;;
24337;SDS011;12457;50.832;4.346;2024-02-26T03:31:38;6.28;;;2.20;;
24337;SDS011;12457;50.832;4.346;2024-02-26T03:34:04;2.75;;;2.25;;
24337;SDS011;12457;50.832;4.346;2024-02-26T03:36:29;3.13;;;2.45;;
24337;SDS011;12457;50.832;4.346;2024-02-26T03:38:55;4.55;;;2.20;;
24337;SDS011;12457;50.832;4.346;2024-02-26T03:41:21;4.90;;;2.42;;
24337;SDS011;12457;50.832;4.346;2024-02-26T03:43:46;2.70;;;2.17;;
24337;SDS011;12457;50.832;4.346;2024-02-26T03:46:12;4.03;;;2.95;;
24337;SDS011;12457;50.832;4.346;2024-02-26T03:48:39;3.45;;;1.83;;
24337;SDS011;12457;50.832;4.346;2024-02-26T03:51:08;2.55;;;1.83;;
24337;SDS011;12457;50.832;4.346;2024-02-26T03:53:37;5.10;;;2.60;;
24337;SDS011;12457;50.832;4.346;2024-02-26T03:56:03;3.78;;;2.40;;
24337;SDS011;12457;50.832;4.346;2024-02-26T03:58:30;2.58;;;2.30;;
24337;SDS011;12457;50.832;4.346;2024-02-26T04:00:56;4.82;;;2.78;;
24337;SDS011;12457;50.832;4.346;2024-02-26T04:03:36;2.95;;;2.25;;
24337;SDS011;12457;50.832;4.346;2024-02-26T04:06:02;2.70;;;2.50;;
24337;SDS011;12457;50.832;4.346;2024-02-26T04:08:29;2.85;;;2.63;;
24337;SDS011;12457;50.832;4.346;2024-02-26T04:10:56;4.47;;;2.47;;
24337;SDS011;12457;50.832;4.346;2024-02-26T04:13:23;3.38;;;2.63;;
24337;SDS011;12457;50.832;4.346;2024-02-26T04:15:48;3.13;;;2.83;;
24337;SDS011;12457;50.832;4.346;2024-02-26T04:21:07;4.38;;;2.95;;
24337;SDS011;12457;50.832;4.346;2024-02-26T04:23:33;3.85;;;3.03;;
24337;SDS011;12457;50.832;4.346;2024-02-26T04:25:59;3.50;;;3.20;;
24337;SDS011;12457;50.832;4.346;2024-02-26T04:28:24;3.97;;;3.47;;
24337;SDS011;12457;50.832;4.346;2024-02-26T04:30:51;6.40;;;3.88;;
24337;SDS011;12457;50.832;4.346;2024-02-26T04:33:26;6.05;;;4.00;;
24337;SDS011;12457;50.832;4.346;2024-02-26T04:35:51;5.80;;;4.07;;
24337;SDS011;12457;50.832;4.346;2024-02-26T04:38:17;7.03;;;4.53;;
24337;SDS011;12457;50.832;4.346;2024-02-26T04:40:43;6.50;;;4.72;;
24337;SDS011;12457;50.832;4.346;2024-02-26T04:43:08;8.07;;;5.05;;
24337;SDS011;12457;50.832;4.346;2024-02-26T04:45:34;10.43;;;5.47;;
24337;SDS011;12457;50.832;4.346;2024-02-26T04:48:05;7.10;;;5.60;;
24337;SDS011;12457;50.832;4.346;2024-02-26T04:50:31;10.00;;;5.15;;
24337;SDS011;12457;50.832;4.346;2024-02-26T04:52:57;9.10;;;5.65;;
24337;SDS011;12457;50.832;4.346;2024-02-26T04:55:22;7.30;;;5.80;;
24337;SDS011;12457;50.832;4.346;2024-02-26T04:57:48;6.38;;;5.53;;
24337;SDS011;12457;50.832;4.346;2024-02-26T05:00:14;8.10;;;5.95;;
24337;SDS011;12457;50.832;4.346;2024-02-26T05:02:45;6.93;;;5.75;;
24337;SDS011;12457;50.832;4.346;2024-02-26T05:05:11;7.50;;;6.30;;
24337;SDS011;12457;50.832;4.346;2024-02-26T05:07:40;6.78;;;6.10;;
24337;SDS011;12457;50.832;4.346;2024-02-26T05:10:10;10.40;;;6.43;;
24337;SDS011;12457;50.832;4.346;2024-02-26T05:12:36;8.40;;;6.75;;
24337;SDS011;12457;50.832;4.346;2024-02-26T05:15:02;10.05;;;6.75;;
24337;SDS011;12457;50.832;4.346;2024-02-26T05:17:28;11.05;;;7.40;;
24337;SDS011;12457;50.832;4.346;2024-02-26T05:19:53;11.52;;;7.28;;
24337;SDS011;12457;50.832;4.346;2024-02-26T05:22:19;13.48;;;7.65;;
24337;SDS011;12457;50.832;4.346;2024-02-26T05:24:45;9.55;;;7.38;;
24337;SDS011;12457;50.832;4.346;2024-02-26T05:27:11;12.23;;;8.02;;
24337;SDS011;12457;50.832;4.346;2024-02-26T05:29:37;10.45;;;8.48;;
24337;SDS011;12457;50.832;4.346;2024-02-26T05:32:03;10.32;;;8.57;;
24337;SDS011;12457;50.832;4.346;2024-02-26T05:34:33;11.40;;;9.30;;
24337;SDS011;12457;50.832;4.346;2024-02-26T05:36:59;13.57;;;10.10;;
24337;SDS011;12457;50.832;4.346;2024-02-26T05:39:24;13.75;;;10.65;;
24337;SDS011;12457;50.832;4.346;2024-02-26T05:41:50;15.43;;;11.75;;
24337;SDS011;12457;50.832;4.346;2024-02-26T05:44:16;12.70;;;10.10;;
24337;SDS011;12457;50.832;4.346;2024-02-26T05:46:41;20.02;;;13.00;;
24337;SDS011;12457;50.832;4.346;2024-02-26T05:49:07;16.33;;;13.23;;
24337;SDS011;12457;50.832;4.346;2024-02-26T05:51:33;17.08;;;13.77;;
24337;SDS011;12457;50.832;4.346;2024-02-26T05:53:58;16.70;;;13.43;;
24337;SDS011;12457;50.832;4.346;2024-02-26T05:56:24;22.92;;;16.15;;
24337;SDS011;12457;50.832;4.346;2024-02-26T05:58:50;20.30;;;14.35;;
24337;SDS011;12457;50.832;4.346;2024-02-26T06:01:16;19.38;;;14.48;;
24337;SDS011;12457;50.832;4.346;2024-02-26T06:03:48;18.88;;;14.70;;
24337;SDS011;12457;50.832;4.346;2024-02-26T06:06:13;18.27;;;14.75;;
24337;SDS011;12457;50.832;4.346;2024-02-26T06:08:42;19.27;;;14.48;;
24337;SDS011;12457;50.832;4.346;2024-02-26T06:11:07;17.77;;;14.68;;
24337;SDS011;12457;50.832;4.346;2024-02-26T06:13:33;21.02;;;14.23;;
24337;SDS011;12457;50.832;4.346;2024-02-26T06:15:59;18.02;;;14.23;;
24337;SDS011;12457;50.832;4.346;2024-02-26T06:18:25;20.02;;;13.48;;
24337;SDS011;12457;50.832;4.346;2024-02-26T06:20:51;17.27;;;14.00;;
24337;SDS011;12457;50.832;4.346;2024-02-26T06:23:16;21.08;;;14.98;;
24337;SDS011;12457;50.832;4.346;2024-02-26T06:25:42;18.92;;;14.75;;
24337;SDS011;12457;50.832;4.346;2024-02-26T06:28:08;19.70;;;14.13;;
24337;SDS011;12457;50.832;4.346;2024-02-26T06:30:34;20.85;;;13.75;;
24337;SDS011;12457;50.832;4.346;2024-02-26T06:33:00;16.20;;;13.40;;
24337;SDS011;12457;50.832;4.346;2024-02-26T06:35:41;18.75;;;14.18;;
24337;SDS011;12457;50.832;4.346;2024-02-26T06:38:06;21.85;;;14.57;;
24337;SDS011;12457;50.832;4.346;2024-02-26T06:40:33;18.90;;;14.38;;
24337;SDS011;12457;50.832;4.346;2024-02-26T06:42:58;18.75;;;15.45;;
24337;SDS011;12457;50.832;4.346;2024-02-26T06:45:24;16.92;;;13.32;;
24337;SDS011;12457;50.832;4.346;2024-02-26T06:47:49;19.30;;;15.35;;
24337;SDS011;12457;50.832;4.346;2024-02-26T06:50:15;21.00;;;16.02;;
24337;SDS011;12457;50.832;4.346;2024-02-26T06:52:42;16.77;;;14.35;;
24337;SDS011;12457;50.832;4.346;2024-02-26T06:55:09;16.58;;;13.18;;
24337;SDS011;12457;50.832;4.346;2024-02-26T06:57:35;18.23;;;13.75;;
24337;SDS011;12457;50.832;4.346;2024-02-26T07:00:01;18.00;;;14.95;;
24337;SDS011;12457;50.832;4.346;2024-02-26T07:02:28;20.17;;;16.60;;
24337;SDS011;12457;50.832;4.346;2024-02-26T07:04:54;17.33;;;13.98;;
24337;SDS011;12457;50.832;4.346;2024-02-26T07:07:21;16.70;;;13.48;;
24337;SDS011;12457;50.832;4.346;2024-02-26T07:09:48;16.58;;;14.35;;
24337;SDS011;12457;50.832;4.346;2024-02-26T07:12:14;18.63;;;14.45;;
24337;SDS011;12457;50.832;4.346;2024-02-26T07:14:41;15.52;;;13.85;;
24337;SDS011;12457;50.832;4.346;2024-02-26T07:17:07;18.98;;;15.48;;
24337;SDS011;12457;50.832;4.346;2024-02-26T07:19:51;18.65;;;14.40;;
24337;SDS011;12457;50.832;4.346;2024-02-26T07:22:17;16.98;;;14.48;;
24337;SDS011;12457;50.832;4.346;2024-02-26T07:24:43;21.15;;;15.63;;
24337;SDS011;12457;50.832;4.346;2024-02-26T07:27:09;19.10;;;15.70;;
24337;SDS011;12457;50.832;4.346;2024-02-26T07:29:34;16.83;;;12.68;;
24337;SDS011;12457;50.832;4.346;2024-02-26T07:32:00;16.38;;;14.52;;
24337;SDS011;12457;50.832;4.346;2024-02-26T07:34:26;19.10;;;15.23;;
24337;SDS011;12457;50.832;4.346;2024-02-26T07:36:54;18.08;;;14.80;;
24337;SDS011;12457;50.832;4.346;2024-02-26T07:39:20;22.27;;;15.57;;
24337;SDS011;12457;50.832;4.346;2024-02-26T07:41:46;18.98;;;15.00;;
24337;SDS011;12457;50.832;4.346;2024-02-26T07:44:14;19.48;;;14.65;;
24337;SDS011;12457;50.832;4.346;2024-02-26T07:46:40;16.15;;;14.10;;
24337;SDS011;12457;50.832;4.346;2024-02-26T07:49:06;18.33;;;13.98;;
24337;SDS011;12457;50.832;4.346;2024-02-26T07:51:33;16.35;;;14.63;;
24337;SDS011;12457;50.832;4.346;2024-02-26T07:53:59;21.00;;;14.70;;
24337;SDS011;12457;50.832;4.346;2024-02-26T07:56:25;16.88;;;12.82;;
24337;SDS011;12457;50.832;4.346;2024-02-26T07:58:51;16.85;;;15.07;;
24337;SDS011;12457;50.832;4.346;2024-02-26T08:01:17;18.50;;;14.55;;
24337;SDS011;12457;50.832;4.346;2024-02-26T08:03:42;17.95;;;15.35;;
24337;SDS011;12457;50.832;4.346;2024-02-26T08:06:08;15.93;;;14.07;;
24337;SDS011;12457;50.832;4.346;2024-02-26T08:08:34;15.98;;;14.23;;
24337;SDS011;12457;50.832;4.346;2024-02-26T08:11:00;16.33;;;13.38;;
24337;SDS011;12457;50.832;4.346;2024-02-26T08:13:25;15.45;;;13.55;;
24337;SDS011;12457;50.832;4.346;2024-02-26T08:15:51;13.90;;;11.80;;
24337;SDS011;12457;50.832;4.346;2024-02-26T08:18:18;14.93;;;12.95;;
24337;SDS011;12457;50.832;4.346;2024-02-26T08:20:44;15.43;;;13.40;;
24337;SDS011;12457;50.832;4.346;2024-02-26T08:23:10;15.00;;;12.20;;
24337;SDS011;12457;50.832;4.346;2024-02-26T08:25:35;14.88;;;12.95;;
24337;SDS011;12457;50.832;4.346;2024-02-26T08:28:01;13.27;;;11.45;;
24337;SDS011;12457;50.832;4.346;2024-02-26T08:30:26;13.45;;;11.45;;
24337;SDS011;12457;50.832;4.346;2024-02-26T08:32:52;13.88;;;12.38;;
24337;SDS011;12457;50.832;4.346;2024-02-26T08:35:18;16.13;;;12.15;;
24337;SDS011;12457;50.832;4.346;2024-02-26T08:37:45;14.23;;;12.68;;
24337;SDS011;12457;50.832;4.346;2024-02-26T08:40:11;13.65;;;12.25;;
24337;SDS011;12457;50.832;4.346;2024-02-26T08:42:37;12.40;;;11.10;;
24337;SDS011;12457;50.832;4.346;2024-02-26T08:45:02;14.60;;;12.10;;
24337;SDS011;12457;50.832;4.346;2024-02-26T08:47:28;13.48;;;12.02;;
24337;SDS011;12457;50.832;4.346;2024-02-26T08:49:54;12.50;;;11.20;;
24337;SDS011;12457;50.832;4.346;2024-02-26T08:52:19;16.35;;;11.98;;
24337;SDS011;12457;50.832;4.346;2024-02-26T08:54:46;12.77;;;11.25;;
24337;SDS011;12457;50.832;4.346;2024-02-26T08:57:12;14.77;;;11.93;;
24337;SDS011;12457;50.832;4.346;2024-02-26T08:59:38;16.45;;;12.40;;
24337;SDS011;12457;50.832;4.346;2024-02-26T09:02:03;13.73;;;12.15;;
24337;SDS011;12457;50.832;4.346;2024-02-26T09:04:29;12.73;;;11.30;;
24337;SDS011;12457;50.832;4.346;2024-02-26T09:06:55;18.95;;;12.88;;
24337;SDS011;12457;50.832;4.346;2024-02-26T09:09:20;12.45;;;10.73;;
24337;SDS011;12457;50.832;4.346;2024-02-26T09:11:47;11.32;;;10.10;;
24337;SDS011;12457;50.832;4.346;2024-02-26T09:14:16;13.98;;;11.63;;
24337;SDS011;12457;50.832;4.346;2024-02-26T09:16:42;14.73;;;11.65;;
24337;SDS011;12457;50.832;4.346;2024-02-26T09:19:07;13.90;;;11.48;;
24337;SDS011;12457;50.832;4.346;2024-02-26T09:21:33;16.08;;;11.65;;
24337;SDS011;12457;50.832;4.346;2024-02-26T09:23:59;12.63;;;10.75;;
24337;SDS011;12457;50.832;4.346;2024-02-26T09:26:24;14.90;;;9.00;;
24337;SDS011;12457;50.832;4.346;2024-02-26T09:28:50;12.98;;;10.70;;
24337;SDS011;12457;50.832;4.346;2024-02-26T09:31:17;14.80;;;11.32;;
24337;SDS011;12457;50.832;4.346;2024-02-26T09:33:43;12.38;;;10.98;;
24337;SDS011;12457;50.832;4.346;2024-02-26T09:36:09;14.82;;;11.10;;
24337;SDS011;12457;50.832;4.346;2024-02-26T09:38:36;13.23;;;10.27;;
24337;SDS011;12457;50.832;4.346;2024-02-26T09:41:03;13.18;;;11.32;;
24337;SDS011;12457;50.832;4.346;2024-02-26T09:43:34;15.05;;;11.52;;
24337;SDS011;12457;50.832;4.346;2024-02-26T09:46:01;11.93;;;10.63;;
24337;SDS011;12457;50.832;4.346;2024-02-26T09:48:26;17.48;;;11.23;;
24337;SDS011;12457;50.832;4.346;2024-02-26T09:50:53;15.23;;;11.32;;
24337;SDS011;12457;50.832;4.346;2024-02-26T09:53:19;14.23;;;10.32;;
24337;SDS011;12457;50.832;4.346;2024-02-26T09:55:46;13.95;;;10.38;;
24337;SDS011;12457;50.832;4.346;2024-02-26T09:58:12;16.08;;;11.02;;
24337;SDS011;12457;50.832;4.346;2024-02-26T10:00:43;12.30;;;11.05;;
24337;SDS011;12457;50.832;4.346;2024-02-26T10:03:15;13.13;;;11.23;;
24337;SDS011;12457;50.832;4.346;2024-02-26T10:05:42;14.70;;;11.02;;
24337;SDS011;12457;50.832;4.346;2024-02-26T10:08:08;10.57;;;9.50;;
24337;SDS011;12457;50.832;4.346;2024-02-26T10:10:35;12.20;;;10.30;;
24337;SDS011;12457;50.832;4.346;2024-02-26T10:13:03;11.25;;;9.57;;
24337;SDS011;12457;50.832;4.346;2024-02-26T10:15:34;13.93;;;9.88;;
24337;SDS011;12457;50.832;4.346;2024-02-26T10:18:03;15.13;;;10.70;;
24337;SDS011;12457;50.832;4.346;2024-02-26T10:20:39;11.80;;;10.07;;
24337;SDS011;12457;50.832;4.346;2024-02-26T10:23:05;11.30;;;10.10;;
24337;SDS011;12457;50.832;4.346;2024-02-26T10:25:31;11.60;;;9.52;;
24337;SDS011;12457;50.832;4.346;2024-02-26T10:28:01;11.20;;;9.13;;
24337;SDS011;12457;50.832;4.346;2024-02-26T10:30:27;11.82;;;9.10;;
24337;SDS011;12457;50.832;4.346;2024-02-26T10:32:53;11.10;;;9.40;;
24337;SDS011;12457;50.832;4.346;2024-02-26T10:35:25;12.55;;;8.52;;
24337;SDS011;12457;50.832;4.346;2024-02-26T10:37:51;15.77;;;8.75;;
24337;SDS011;12457;50.832;4.346;2024-02-26T10:40:17;8.95;;;8.05;;
24337;SDS011;12457;50.832;4.346;2024-02-26T10:42:43;10.23;;;7.65;;
24337;SDS011;12457;50.832;4.346;2024-02-26T10:45:10;8.85;;;7.85;;
24337;SDS011;12457;50.832;4.346;2024-02-26T10:47:36;7.45;;;6.20;;
24337;SDS011;12457;50.832;4.346;2024-02-26T10:50:03;8.20;;;7.28;;
24337;SDS011;12457;50.832;4.346;2024-02-26T10:52:34;8.23;;;7.00;;
24337;SDS011;12457;50.832;4.346;2024-02-26T10:55:03;8.65;;;6.85;;
24337;SDS011;12457;50.832;4.346;2024-02-26T10:57:32;10.75;;;6.93;;
24337;SDS011;12457;50.832;4.346;2024-02-26T11:00:04;8.27;;;6.72;;
24337;SDS011;12457;50.832;4.346;2024-02-26T11:02:32;8.77;;;6.80;;
24337;SDS011;12457;50.832;4.346;2024-02-26T11:05:00;7.03;;;6.38;;
24337;SDS011;12457;50.832;4.346;2024-02-26T11:07:32;8.70;;;6.32;;
24337;SDS011;12457;50.832;4.346;2024-02-26T11:10:05;6.40;;;5.70;;
24337;SDS011;12457;50.832;4.346;2024-02-26T11:12:33;7.03;;;5.55;;
24337;SDS011;12457;50.832;4.346;2024-02-26T11:15:03;7.07;;;5.53;;
24337;SDS011;12457;50.832;4.346;2024-02-26T11:17:29;7.35;;;5.90;;
24337;SDS011;12457;50.832;4.346;2024-02-26T11:19:56;6.10;;;5.40;;
24337;SDS011;12457;50.832;4.346;2024-02-26T11:22:24;5.97;;;5.38;;
24337;SDS011;12457;50.832;4.346;2024-02-26T11:24:54;7.00;;;5.88;;
24337;SDS011;12457;50.832;4.346;2024-02-26T11:27:23;8.48;;;5.40;;
24337;SDS011;12457;50.832;4.346;2024-02-26T11:29:55;6.30;;;4.80;;
24337;SDS011;12457;50.832;4.346;2024-02-26T11:32:24;4.60;;;4.18;;
24337;SDS011;12457;50.832;4.346;2024-02-26T11:34:51;5.38;;;4.68;;
24337;SDS011;12457;50.832;4.346;2024-02-26T11:37:19;5.38;;;4.60;;
24337;SDS011;12457;50.832;4.346;2024-02-26T11:39:45;5.10;;;4.45;;
24337;SDS011;12457;50.832;4.346;2024-02-26T11:42:13;5.53;;;5.03;;
24337;SDS011;12457;50.832;4.346;2024-02-26T11:44:40;5.13;;;4.65;;
24337;SDS011;12457;50.832;4.346;2024-02-26T11:47:09;7.85;;;4.43;;
24337;SDS011;12457;50.832;4.346;2024-02-26T11:49:39;4.90;;;4.40;;
24337;SDS011;12457;50.832;4.346;2024-02-26T11:52:12;4.82;;;4.38;;
24337;SDS011;12457;50.832;4.346;2024-02-26T11:59:48;5.65;;;4.65;;
24337;SDS011;12457;50.832;4.346;2024-02-26T12:05:05;6.35;;;4.78;;
24337;SDS011;12457;50.832;4.346;2024-02-26T12:07:47;6.20;;;4.57;;
24337;SDS011;12457;50.832;4.346;2024-02-26T12:12:54;8.35;;;5.00;;
24337;SDS011;12457;50.832;4.346;2024-02-26T12:15:30;7.45;;;5.80;;
24337;SDS011;12457;50.832;4.346;2024-02-26T12:17:57;6.80;;;5.32;;
24337;SDS011;12457;50.832;4.346;2024-02-26T12:20:25;8.35;;;4.93;;
24337;SDS011;12457;50.832;4.346;2024-02-26T12:22:50;10.38;;;5.78;;
24337;SDS011;12457;50.832;4.346;2024-02-26T12:25:24;5.57;;;4.97;;
24337;SDS011;12457;50.832;4.346;2024-02-26T12:27:51;6.93;;;5.28;;
24337;SDS011;12457;50.832;4.346;2024-02-26T12:30:18;7.18;;;5.15;;
24337;SDS011;12457;50.832;4.346;2024-02-26T12:32:44;5.93;;;5.32;;
24337;SDS011;12457;50.832;4.346;2024-02-26T12:35:17;5.53;;;5.03;;
24337;SDS011;12457;50.832;4.346;2024-02-26T12:38:01;5.47;;;4.97;;
24337;SDS011;12457;50.832;4.346;2024-02-26T12:40:29;5.72;;;5.22;;
24337;SDS011;12457;50.832;4.346;2024-02-26T12:42:55;6.70;;;5.43;;
24337;SDS011;12457;50.832;4.346;2024-02-26T12:45:20;5.72;;;5.13;;
24337;SDS011;12457;50.832;4.346;2024-02-26T12:47:46;6.05;;;5.07;;
24337;SDS011;12457;50.832;4.346;2024-02-26T12:50:13;5.15;;;4.65;;
24337;SDS011;12457;50.832;4.346;2024-02-26T12:52:40;5.93;;;5.28;;
24337;SDS011;12457;50.832;4.346;2024-02-26T12:55:08;5.32;;;4.82;;
24337;SDS011;12457;50.832;4.346;2024-02-26T12:57:39;7.35;;;5.35;;
24337;SDS011;12457;50.832;4.346;2024-02-26T13:00:08;6.72;;;5.40;;
24337;SDS011;12457;50.832;4.346;2024-02-26T13:02:38;6.80;;;5.38;;
24337;SDS011;12457;50.832;4.346;2024-02-26T13:05:05;6.00;;;4.65;;
24337;SDS011;12457;50.832;4.346;2024-02-26T13:07:33;6.30;;;5.63;;
24337;SDS011;12457;50.832;4.346;2024-02-26T13:09:59;7.43;;;5.90;;
24337;SDS011;12457;50.832;4.346;2024-02-26T13:12:26;8.10;;;6.07;;
24337;SDS011;12457;50.832;4.346;2024-02-26T13:15:04;6.55;;;5.82;;
24337;SDS011;12457;50.832;4.346;2024-02-26T13:17:33;7.60;;;5.97;;
24337;SDS011;12457;50.832;4.346;2024-02-26T13:19:59;6.43;;;5.45;;
24337;SDS011;12457;50.832;4.346;2024-02-26T13:22:30;7.05;;;5.47;;
24337;SDS011;12457;50.832;4.346;2024-02-26T13:24:59;8.30;;;5.63;;
24337;SDS011;12457;50.832;4.346;2024-02-26T13:27:25;8.57;;;6.47;;
24337;SDS011;12457;50.832;4.346;2024-02-26T13:30:08;8.82;;;6.90;;
24337;SDS011;12457;50.832;4.346;2024-02-26T13:32:36;10.60;;;6.57;;
24337;SDS011;12457;50.832;4.346;2024-02-26T13:37:38;7.50;;;6.78;;
24337;SDS011;12457;50.832;4.346;2024-02-26T13:40:08;7.53;;;6.72;;
24337;SDS011;12457;50.832;4.346;2024-02-26T13:42:35;7.40;;;6.70;;
24337;SDS011;12457;50.832;4.346;2024-02-26T13:45:03;7.30;;;6.13;;
24337;SDS011;12457;50.832;4.346;2024-02-26T13:47:33;10.15;;;7.60;;
24337;SDS011;12457;50.832;4.346;2024-02-26T13:50:00;9.68;;;7.75;;
24337;SDS011;12457;50.832;4.346;2024-02-26T13:52:35;9.73;;;8.57;;
24337;SDS011;12457;50.832;4.346;2024-02-26T13:55:01;8.40;;;7.22;;
24337;SDS011;12457;50.832;4.346;2024-02-26T13:57:28;10.48;;;8.25;;
24337;SDS011;12457;50.832;4.346;2024-02-26T13:59:54;9.40;;;8.20;;
24337;SDS011;12457;50.832;4.346;2024-02-26T14:02:20;11.05;;;8.98;;
24337;SDS011;12457;50.832;4.346;2024-02-26T14:04:46;10.25;;;8.40;;
24337;SDS011;12457;50.832;4.346;2024-02-26T14:07:18;12.70;;;8.75;;
24337;SDS011;12457;50.832;4.346;2024-02-26T14:09:44;12.90;;;9.57;;
24337;SDS011;12457;50.832;4.346;2024-02-26T14:12:11;11.63;;;9.88;;
24337;SDS011;12457;50.832;4.346;2024-02-26T14:14:40;12.57;;;9.35;;
24337;SDS011;12457;50.832;4.346;2024-02-26T14:17:07;12.90;;;10.27;;
24337;SDS011;12457;50.832;4.346;2024-02-26T14:19:33;12.02;;;9.63;;
24337;SDS011;12457;50.832;4.346;2024-02-26T14:21:58;14.50;;;8.80;;
24337;SDS011;12457;50.832;4.346;2024-02-26T14:24:24;10.98;;;8.32;;
24337;SDS011;12457;50.832;4.346;2024-02-26T14:26:50;12.93;;;9.13;;
24337;SDS011;12457;50.832;4.346;2024-02-26T14:29:15;11.98;;;9.80;;
24337;SDS011;12457;50.832;4.346;2024-02-26T14:31:41;13.75;;;9.27;;
24337;SDS011;12457;50.832;4.346;2024-02-26T14:34:07;13.32;;;10.23;;
24337;SDS011;12457;50.832;4.346;2024-02-26T14:36:34;12.82;;;9.90;;
24337;SDS011;12457;50.832;4.346;2024-02-26T14:39:02;13.65;;;9.80;;
24337;SDS011;12457;50.832;4.346;2024-02-26T14:41:29;12.80;;;9.50;;
24337;SDS011;12457;50.832;4.346;2024-02-26T14:43:54;13.02;;;9.65;;
24337;SDS011;12457;50.832;4.346;2024-02-26T14:46:20;14.07;;;10.00;;
24337;SDS011;12457;50.832;4.346;2024-02-26T14:48:46;14.82;;;10.70;;
24337;SDS011;12457;50.832;4.346;2024-02-26T14:51:11;15.23;;;10.52;;
24337;SDS011;12457;50.832;4.346;2024-02-26T14:53:37;12.85;;;9.07;;
24337;SDS011;12457;50.832;4.346;2024-02-26T14:56:03;14.05;;;10.38;;
24337;SDS011;12457;50.832;4.346;2024-02-26T14:58:29;12.52;;;9.13;;